Den Helder, Netherlands
Current Conditions -  °F | °C
As of 3:25 PM on Monday 20 Oct 2014 (Local Time) from EHKD Reporting Station
Broken Clouds Broken Clouds  
Wind Chill: 59°   Ceiling: 5000
Heat Index: 59°   Visibility: 6mi
Dew Point: 52°   Wind: 20mph
Humidity: 77%   Direction: 250°WSW
Pressure: 29.91"   Gusts: NA
Location:  52.96°N, 4.76°E
Report Text: EHKD 201325Z AUTO 25017KT 9999 FEW021 BKN050 BKN055 15/11 Q1013 BLU 25017KT 9999 SCT020 BKN040 TEMPO 27018G28KT SCT017CB BKN025
Loading
Personal Weather Stations






























Interactive Weather Map
Tropical Storm Tracking
New forecast layout! Learn more

10-Day Weather Forecast

Advertisements
Track Severe Weather on mobile